Terminal Aerodrome Forecast
Issued by NWS

Home | Current Version | Previous Version | Text Only | Print | Product List | Glossary On
Versions: 1 2 3 4 5 6 7 8 9 10 11 12
615
FTUS42 KTBW 101131
TAFLAL
TAF
KLAL 101131Z 1012/1112 01008KT P6SM BKN200
     FM101400 04012KT P6SM SCT030 SCT300
     FM101900 06012G20KT P6SM BKN050 BKN250
     FM110200 06012KT P6SM BKN100=

USA.gov is the U.S. government's official web portal to all federal, state and local government web resources and services.